Time;durP1;ratioP1;P1;durP2;ratioP2;P2;SDS_P1;SDS_P2;PMS_P1;PMS_P2;Temp;Humidity;BMP_temperature;BMP_pressure;BME280_temperature;BME280_humidity;BME280_pressure;Samples;Min_cycle;Max_cycle;Signal;HPM_P1;HPM_P2
2022/03/07 00:00:56;;;;;;;14.60;10.70;;;5.50;65.80;;;;;;5032186;28;20429;-68
2022/03/07 00:03:23;;;;;;;13.73;12.13;;;5.20;65.80;;;;;;5013416;28;20183;-68
2022/03/07 00:05:49;;;;;;;13.40;12.00;;;5.50;65.80;;;;;;5011927;28;20784;-68
2022/03/07 00:08:14;;;;;;;11.87;10.57;;;5.40;64.70;;;;;;5011582;28;20189;-68
2022/03/07 00:10:40;;;;;;;13.60;10.27;;;5.30;65.00;;;;;;5027491;28;20175;-68
2022/03/07 00:13:06;;;;;;;12.03;10.70;;;5.20;65.60;;;;;;5023259;28;20521;-68
2022/03/07 00:15:32;;;;;;;12.70;10.13;;;5.30;67.00;;;;;;5008743;28;20249;-71
2022/03/07 00:17:57;;;;;;;10.73;9.63;;;5.30;67.80;;;;;;5008911;28;20285;-69
2022/03/07 00:20:23;;;;;;;12.47;9.37;;;5.30;67.40;;;;;;5026495;28;20186;-68
2022/03/07 00:22:49;;;;;;;12.73;9.70;;;5.40;66.70;;;;;;5024891;28;20202;-68
2022/03/07 00:25:17;;;;;;;11.47;9.93;;;5.40;66.00;;;;;;5023342;28;20175;-68
2022/03/07 00:27:42;;;;;;;13.32;10.20;;;5.50;66.20;;;;;;5013677;28;20561;-69
2022/03/07 00:30:08;;;;;;;10.57;9.47;;;5.30;66.40;;;;;;5025957;28;20167;-68
2022/03/07 00:32:34;;;;;;;11.30;9.30;;;5.70;67.90;;;;;;5023456;28;20174;-68
2022/03/07 00:35:00;;;;;;;9.27;8.37;;;5.60;67.70;;;;;;5009673;28;20393;-76
2022/03/07 00:37:26;;;;;;;10.13;9.13;;;5.30;67.50;;;;;;5024164;28;20467;-68
2022/03/07 00:39:52;;;;;;;10.95;9.15;;;5.80;68.00;;;;;;5022807;28;20716;-68
2022/03/07 00:42:18;;;;;;;10.70;9.50;;;5.60;68.00;;;;;;5023693;28;20275;-68
2022/03/07 00:44:44;;;;;;;11.70;9.87;;;5.60;70.20;;;;;;5025356;28;20535;-68
2022/03/07 00:47:09;;;;;;;12.43;10.00;;;5.40;68.90;;;;;;5020383;28;20190;-68
2022/03/07 00:49:35;;;;;;;12.57;10.60;;;5.70;68.50;;;;;;5020563;28;20220;-69
2022/03/07 00:52:01;;;;;;;10.53;9.43;;;5.70;68.30;;;;;;5007696;28;20271;-68
2022/03/07 00:54:26;;;;;;;11.90;10.40;;;5.70;68.20;;;;;;5000385;28;20180;-68
2022/03/07 00:56:52;;;;;;;10.37;9.27;;;5.80;67.80;;;;;;5015464;28;20540;-69
2022/03/07 00:59:18;;;;;;;10.13;9.23;;;5.80;67.30;;;;;;5014600;28;20203;-69
2022/03/07 01:01:43;;;;;;;9.97;9.00;;;5.80;66.40;;;;;;5023480;28;20203;-68
2022/03/07 01:04:09;;;;;;;10.30;9.30;;;5.40;66.20;;;;;;5028814;28;20630;-69
2022/03/07 01:06:35;;;;;;;10.23;8.83;;;5.80;66.90;;;;;;4998569;28;20664;-68
2022/03/07 01:09:01;;;;;;;10.55;9.55;;;5.80;66.60;;;;;;5024212;28;20619;-68
2022/03/07 01:11:27;;;;;;;11.18;8.52;;;5.80;66.50;;;;;;5021828;28;20635;-68
2022/03/07 01:13:53;;;;;;;9.97;9.07;;;5.80;65.80;;;;;;5024968;28;20192;-68
2022/03/07 01:16:19;;;;;;;10.00;9.00;;;5.90;65.70;;;;;;5024602;28;20182;-68
2022/03/07 01:18:44;;;;;;;9.87;8.70;;;5.50;64.10;;;;;;5034629;28;20485;-68
2022/03/07 01:21:12;;;;;;;9.57;8.77;;;5.80;65.30;;;;;;5016389;28;20237;-69
2022/03/07 01:23:38;;;;;;;9.77;8.88;;;5.70;64.60;;;;;;5034296;28;20186;-69
2022/03/07 01:26:04;;;;;;;10.37;9.37;;;5.60;64.70;;;;;;5015500;28;20183;-78
2022/03/07 01:28:30;;;;;;;10.67;9.67;;;5.90;68.20;;;;;;5033640;28;20699;-68
2022/03/07 01:30:56;;;;;;;9.13;8.20;;;5.90;65.60;;;;;;5034666;28;20259;-68
2022/03/07 01:33:22;;;;;;;9.23;8.43;;;5.90;64.60;;;;;;5033600;28;20257;-68
2022/03/07 01:35:47;;;;;;;9.80;8.80;;;5.90;65.50;;;;;;5033914;28;20634;-68
2022/03/07 01:38:13;;;;;;;9.60;8.60;;;5.90;65.50;;;;;;5018238;28;20203;-68
2022/03/07 01:40:41;;;;;;;12.03;9.63;;;5.60;64.80;;;;;;5020513;28;20171;-68
2022/03/07 01:43:08;;;;;;;10.13;9.00;;;5.80;65.10;;;;;;5033422;28;20184;-78
2022/03/07 01:45:33;;;;;;;10.40;9.30;;;6.00;65.70;;;;;;5014445;28;20198;-69
2022/03/07 01:47:59;;;;;;;10.17;8.67;;;5.80;65.20;;;;;;5014106;28;20179;-68
2022/03/07 01:50:25;;;;;;;9.53;8.60;;;5.90;64.90;;;;;;5013844;28;20446;-69
2022/03/07 01:52:53;;;;;;;10.40;8.63;;;5.90;65.00;;;;;;5033000;28;20171;-69
2022/03/07 01:55:20;;;;;;;9.73;8.83;;;5.80;65.50;;;;;;5007718;28;20564;-68
2022/03/07 01:57:46;;;;;;;10.80;8.73;;;5.40;65.20;;;;;;5021186;28;20468;-68
2022/03/07 02:00:16;;;;;;;10.45;9.32;;;5.80;65.40;;;;;;5013514;28;20194;-68
2022/03/07 02:02:43;;;;;;;10.00;9.00;;;5.90;66.10;;;;;;5025834;28;20253;-68
2022/03/07 02:05:10;;;;;;;13.60;10.02;;;5.60;65.10;;;;;;5031915;28;20220;-77
2022/03/07 02:07:37;;;;;;;10.05;9.05;;;5.90;65.80;;;;;;5033769;28;20266;-69
2022/03/07 02:10:04;;;;;;;11.00;9.90;;;5.90;65.60;;;;;;5033637;28;20175;-68
2022/03/07 02:12:30;;;;;;;10.00;9.00;;;5.80;65.80;;;;;;5032756;28;20183;-68
2022/03/07 02:14:56;;;;;;;11.50;9.93;;;5.50;66.00;;;;;;5025607;28;20668;-68
2022/03/07 02:17:22;;;;;;;11.57;9.93;;;6.10;66.10;;;;;;5024158;28;20183;-68
2022/03/07 02:19:48;;;;;;;10.55;9.35;;;5.60;65.70;;;;;;5014760;28;20458;-68
2022/03/07 02:22:16;;;;;;;12.02;10.88;;;5.50;65.80;;;;;;5032208;28;20182;-68
2022/03/07 02:24:43;;;;;;;11.55;10.35;;;5.80;66.40;;;;;;5033585;28;20207;-68
2022/03/07 02:27:10;;;;;;;11.55;10.27;;;5.80;67.70;;;;;;5032080;28;20179;-77
2022/03/07 02:29:36;;;;;;;12.02;10.80;;;5.80;66.80;;;;;;5024242;28;20295;-69
2022/03/07 02:32:02;;;;;;;12.68;10.90;;;5.80;67.10;;;;;;4995853;28;20179;-68
2022/03/07 02:34:28;;;;;;;11.43;10.30;;;5.90;67.00;;;;;;5031277;28;20179;-71
2022/03/07 02:36:54;;;;;;;12.57;10.50;;;5.50;66.50;;;;;;5028344;28;20186;-68
2022/03/07 02:39:20;;;;;;;11.80;9.70;;;5.90;66.70;;;;;;5012055;28;20695;-68
2022/03/07 02:41:46;;;;;;;11.87;10.60;;;5.80;66.70;;;;;;5013626;28;20556;-68
2022/03/07 02:44:11;;;;;;;11.50;10.30;;;5.90;66.10;;;;;;5013927;28;20180;-73
2022/03/07 02:46:38;;;;;;;11.83;10.53;;;5.90;66.50;;;;;;5021478;28;20417;-68
2022/03/07 02:49:04;;;;;;;11.47;10.37;;;6.00;66.60;;;;;;5004586;28;20687;-68
2022/03/07 02:51:30;;;;;;;10.33;9.33;;;5.80;66.80;;;;;;5004336;28;20654;-68
2022/03/07 02:53:56;;;;;;;11.63;10.30;;;5.40;66.00;;;;;;5005410;28;20430;-68
2022/03/07 02:56:22;;;;;;;11.37;9.70;;;6.00;67.30;;;;;;5021803;28;20437;-71
2022/03/07 02:58:48;;;;;;;11.40;10.30;;;5.50;66.30;;;;;;5021852;28;20233;-68
2022/03/07 03:01:13;;;;;;;10.83;9.83;;;5.80;67.40;;;;;;5019976;28;20191;-70
2022/03/07 03:03:39;;;;;;;10.67;9.67;;;5.80;67.30;;;;;;5021629;28;20190;-68
2022/03/07 03:06:05;;;;;;;13.00;10.70;;;5.60;67.20;;;;;;5021331;28;20175;-68
2022/03/07 03:08:31;;;;;;;11.60;10.50;;;5.70;68.10;;;;;;5010203;28;20186;-68
2022/03/07 03:10:57;;;;;;;10.87;9.87;;;5.50;67.40;;;;;;5032712;28;20231;-67
2022/03/07 03:13:24;;;;;;;11.20;10.13;;;5.60;67.80;;;;;;5032105;28;20401;-68
2022/03/07 03:15:51;;;;;;;11.38;10.38;;;5.30;68.00;;;;;;5032877;28;20201;-68
2022/03/07 03:18:18;;;;;;;12.48;10.05;;;5.70;68.00;;;;;;5014335;28;20278;-68
2022/03/07 03:20:46;;;;;;;10.75;9.65;;;5.70;67.40;;;;;;5012972;28;20187;-68
2022/03/07 03:23:12;;;;;;;11.07;9.35;;;5.50;66.90;;;;;;5017980;28;20171;-78
2022/03/07 03:25:38;;;;;;;10.80;9.70;;;5.40;67.30;;;;;;5031646;28;20538;-68
2022/03/07 03:28:04;;;;;;;10.68;9.65;;;5.80;68.60;;;;;;5019156;28;20414;-70
2022/03/07 03:30:30;;;;;;;11.25;10.15;;;5.20;67.40;;;;;;4994413;28;20252;-68
2022/03/07 03:32:56;;;;;;;10.80;9.80;;;5.90;68.00;;;;;;5012951;28;20631;-67
2022/03/07 03:35:22;;;;;;;10.95;9.70;;;5.40;67.50;;;;;;4994382;28;20535;-68
2022/03/07 03:37:48;;;;;;;10.13;9.13;;;5.70;67.90;;;;;;5031589;28;20820;-68
2022/03/07 03:40:14;;;;;;;10.00;9.03;;;5.40;68.10;;;;;;5031414;28;20264;-75
2022/03/07 03:42:40;;;;;;;10.38;9.35;;;5.40;68.40;;;;;;5032101;28;20182;-68
2022/03/07 03:45:10;;;;;;;10.30;9.30;;;5.60;68.00;;;;;;5031013;28;20649;-68
2022/03/07 03:47:37;;;;;;;11.10;10.00;;;5.40;67.10;;;;;;5020252;28;20180;-68
2022/03/07 03:50:07;;;;;;;11.00;9.20;;;5.90;68.10;;;;;;5031427;28;20224;-70
2022/03/07 03:52:34;;;;;;;11.38;10.38;;;5.60;68.00;;;;;;5028379;28;20312;-68
2022/03/07 03:55:02;;;;;;;9.68;8.77;;;5.30;67.80;;;;;;5032245;28;20175;-69
2022/03/07 03:57:28;;;;;;;10.25;9.25;;;5.60;68.10;;;;;;5013901;28;20198;-68
2022/03/07 03:59:54;;;;;;;10.23;9.32;;;5.50;68.10;;;;;;5032154;28;20218;-68
2022/03/07 04:02:20;;;;;;;10.87;9.77;;;5.30;68.20;;;;;;5012551;28;20210;-68
2022/03/07 04:04:45;;;;;;;9.60;8.70;;;5.40;69.00;;;;;;5018596;28;20505;-68
2022/03/07 04:07:11;;;;;;;9.93;8.90;;;5.40;68.80;;;;;;5014155;28;20175;-79
2022/03/07 04:09:37;;;;;;;12.60;9.87;;;5.30;67.60;;;;;;5021424;28;20189;-68
2022/03/07 04:12:03;;;;;;;11.80;9.40;;;5.00;68.40;;;;;;5020087;28;20214;-68
2022/03/07 04:14:29;;;;;;;10.18;9.27;;;5.00;69.10;;;;;;5019290;28;20817;-67
2022/03/07 04:16:55;;;;;;;9.63;8.73;;;4.70;69.10;;;;;;5031117;28;20256;-67
2022/03/07 04:19:20;;;;;;;9.70;8.70;;;5.00;69.10;;;;;;5031310;28;20228;-68
2022/03/07 04:21:46;;;;;;;11.07;9.97;;;4.70;68.70;;;;;;5013041;28;20538;-67
2022/03/07 04:24:13;;;;;;;10.40;9.33;;;5.30;69.10;;;;;;5012200;28;20190;-79
2022/03/07 04:26:40;;;;;;;10.40;9.35;;;5.30;69.90;;;;;;5012875;28;20178;-67
2022/03/07 04:29:10;;;;;;;11.18;10.07;;;5.30;69.10;;;;;;5031609;28;20203;-67
2022/03/07 04:31:37;;;;;;;11.05;10.05;;;5.30;69.30;;;;;;5020643;28;20190;-67
2022/03/07 04:34:04;;;;;;;11.27;10.18;;;5.00;68.90;;;;;;5014028;28;20229;-67
2022/03/07 04:36:30;;;;;;;11.57;10.38;;;5.30;69.00;;;;;;5012535;28;20175;-68
2022/03/07 04:38:56;;;;;;;12.40;10.47;;;5.20;70.00;;;;;;5013968;28;20205;-68
2022/03/07 04:41:21;;;;;;;11.87;10.50;;;4.90;69.10;;;;;;5030418;28;20178;-68
2022/03/07 04:43:47;;;;;;;11.20;10.20;;;5.30;69.60;;;;;;5030994;28;20425;-67
2022/03/07 04:46:13;;;;;;;11.77;10.67;;;5.40;69.40;;;;;;5031607;28;20186;-76
2022/03/07 04:48:39;;;;;;;14.80;10.73;;;5.30;70.10;;;;;;5012255;28;20187;-68
2022/03/07 04:51:05;;;;;;;15.20;11.67;;;4.90;69.70;;;;;;5027722;28;20179;-68
2022/03/07 04:53:30;;;;;;;11.10;9.80;;;5.40;70.70;;;;;;4993733;28;20389;-67
2022/03/07 04:55:57;;;;;;;11.43;10.23;;;5.20;69.70;;;;;;5011386;28;20185;-67
2022/03/07 04:58:23;;;;;;;12.50;9.90;;;5.50;70.80;;;;;;5012754;28;20465;-68
2022/03/07 05:00:48;;;;;;;12.45;11.25;;;5.00;69.70;;;;;;5025052;28;20179;-68
2022/03/07 05:03:14;;;;;;;11.33;10.40;;;5.60;70.30;;;;;;5013746;28;20378;-79
2022/03/07 05:05:40;;;;;;;11.80;10.60;;;5.40;69.80;;;;;;5016063;28;20701;-76
2022/03/07 05:08:06;;;;;;;11.50;10.30;;;5.40;69.60;;;;;;5033465;28;20178;-67
2022/03/07 05:10:32;;;;;;;11.40;10.23;;;5.40;70.20;;;;;;5034299;28;20611;-68
2022/03/07 05:12:58;;;;;;;9.97;9.10;;;5.40;69.80;;;;;;5035196;28;20403;-66
2022/03/07 05:15:24;;;;;;;11.10;10.05;;;5.40;69.20;;;;;;5008433;28;20301;-68
2022/03/07 05:17:53;;;;;;;10.63;9.40;;;5.40;69.00;;;;;;5012872;28;20258;-68
2022/03/07 05:20:21;;;;;;;12.73;10.50;;;5.30;69.40;;;;;;5013733;28;20422;-81
2022/03/07 05:22:46;;;;;;;12.02;10.85;;;5.30;68.80;;;;;;4999268;28;20183;-67
2022/03/07 05:25:14;;;;;;;11.40;10.40;;;5.40;69.00;;;;;;5033302;28;20189;-68
2022/03/07 05:27:40;;;;;;;13.48;11.30;;;5.40;69.00;;;;;;5030092;28;20266;-68
2022/03/07 05:30:09;;;;;;;11.40;10.20;;;5.40;69.00;;;;;;5034843;28;20221;-67
2022/03/07 05:32:35;;;;;;;11.15;10.20;;;5.50;70.40;;;;;;5043401;28;20528;-68
2022/03/07 05:35:01;;;;;;;11.33;10.27;;;5.50;70.00;;;;;;5044212;28;20187;-67
2022/03/07 05:37:27;;;;;;;11.18;10.15;;;5.50;70.10;;;;;;5012009;28;20706;-68
2022/03/07 05:39:52;;;;;;;12.30;11.00;;;5.50;70.20;;;;;;5034370;28;20294;-68
2022/03/07 05:42:18;;;;;;;12.63;11.43;;;5.60;70.20;;;;;;5034182;28;20229;-80
2022/03/07 05:44:44;;;;;;;11.47;10.47;;;5.50;69.70;;;;;;5002208;28;20234;-68
2022/03/07 05:47:10;;;;;;;10.97;9.47;;;5.20;68.90;;;;;;5030505;28;20450;-68
2022/03/07 05:49:35;;;;;;;11.30;10.10;;;5.50;68.50;;;;;;5030980;28;20222;-67
2022/03/07 05:52:01;;;;;;;12.40;9.57;;;5.20;68.10;;;;;;5015506;28;20187;-67
2022/03/07 05:54:27;;;;;;;13.63;11.10;;;5.50;68.60;;;;;;5031666;28;20170;-67
2022/03/07 05:56:53;;;;;;;14.20;12.70;;;5.50;71.00;;;;;;5020907;28;20210;-68
2022/03/07 05:59:19;;;;;;;15.95;12.10;;;5.10;80.00;;;;;;5033452;28;20668;-72
2022/03/07 06:01:44;;;;;;;40.53;23.90;;;5.70;84.70;;;;;;5019724;28;20183;-68
2022/03/07 06:04:10;;;;;;;29.80;20.77;;;6.30;97.60;;;;;;5017075;28;20233;-69
2022/03/07 06:06:36;;;;;;;12.27;11.17;;;7.50;99.90;;;;;;5020064;28;20204;-69
2022/03/07 06:09:02;;;;;;;13.20;10.67;;;8.40;93.80;;;;;;5025162;28;20220;-68
2022/03/07 06:11:28;;;;;;;12.88;11.68;;;8.90;87.20;;;;;;5031895;28;20421;-68
2022/03/07 06:13:54;;;;;;;10.80;9.90;;;9.20;71.00;;;;;;5029115;28;20185;-69
2022/03/07 06:16:19;;;;;;;12.20;11.07;;;9.00;63.30;;;;;;5025340;28;20175;-76
2022/03/07 06:18:45;;;;;;;10.90;9.90;;;8.70;63.40;;;;;;5023978;28;20217;-68
2022/03/07 06:21:11;;;;;;;12.17;10.97;;;8.40;63.00;;;;;;5032749;28;20184;-68
2022/03/07 06:23:37;;;;;;;11.83;10.70;;;8.00;63.90;;;;;;5032755;28;20178;-68
2022/03/07 06:26:06;;;;;;;10.73;9.60;;;7.90;63.30;;;;;;5031233;28;20211;-68
2022/03/07 06:28:32;;;;;;;11.30;10.17;;;7.50;64.40;;;;;;5023615;28;20931;-68
2022/03/07 06:30:58;;;;;;;11.07;10.17;;;6.90;64.70;;;;;;5000582;28;20431;-68
2022/03/07 06:33:24;;;;;;;10.53;9.07;;;6.90;65.70;;;;;;5024644;28;20444;-75
2022/03/07 06:35:49;;;;;;;10.27;9.27;;;6.70;66.90;;;;;;4999074;28;20429;-69
2022/03/07 06:38:15;;;;;;;10.10;9.03;;;6.60;67.80;;;;;;5014185;28;20271;-68
2022/03/07 06:40:42;;;;;;;10.53;9.53;;;6.40;68.40;;;;;;5012578;28;20263;-68
2022/03/07 06:43:07;;;;;;;11.85;9.98;;;6.30;68.50;;;;;;5025142;28;20183;-68
2022/03/07 06:45:33;;;;;;;10.63;9.53;;;6.10;68.80;;;;;;5030247;28;20269;-68
2022/03/07 06:47:59;;;;;;;10.77;9.77;;;6.00;68.70;;;;;;5027746;28;20482;-68
2022/03/07 06:50:27;;;;;;;11.15;9.98;;;5.80;69.20;;;;;;5009876;28;20435;-70
2022/03/07 06:52:53;;;;;;;9.52;8.55;;;5.30;69.80;;;;;;5030936;28;20190;-68
2022/03/07 06:55:19;;;;;;;11.30;10.23;;;5.70;71.90;;;;;;5032122;28;20257;-68
2022/03/07 06:57:45;;;;;;;12.03;10.83;;;5.80;74.20;;;;;;5015599;28;20175;-68
2022/03/07 07:00:13;;;;;;;11.27;9.90;;;5.80;73.90;;;;;;5032398;28;20421;-68
2022/03/07 07:02:39;;;;;;;11.68;10.57;;;5.70;73.30;;;;;;5019250;28;20401;-68
2022/03/07 07:05:06;;;;;;;12.50;10.30;;;5.60;73.20;;;;;;5035262;28;20639;-68
2022/03/07 07:07:32;;;;;;;10.50;9.50;;;5.50;73.50;;;;;;5002725;28;20198;-68
2022/03/07 07:09:58;;;;;;;11.73;9.88;;;5.50;72.70;;;;;;5015454;28;20538;-68
2022/03/07 07:12:25;;;;;;;10.85;9.85;;;5.50;72.20;;;;;;5031730;28;20190;-75
2022/03/07 07:14:50;;;;;;;11.43;10.32;;;5.50;73.00;;;;;;5021519;28;20237;-68
2022/03/07 07:17:17;;;;;;;11.30;10.10;;;5.10;73.30;;;;;;5020292;28;20207;-68
2022/03/07 07:19:43;;;;;;;13.73;10.43;;;5.60;74.20;;;;;;5022379;28;20222;-68
2022/03/07 07:22:09;;;;;;;12.05;9.70;;;5.50;72.60;;;;;;5030940;28;20186;-68
2022/03/07 07:24:35;;;;;;;10.50;9.40;;;5.70;72.00;;;;;;5013285;28;20261;-68
2022/03/07 07:27:01;;;;;;;12.37;11.07;;;5.70;72.00;;;;;;5032316;28;20316;-68
2022/03/07 07:29:27;;;;;;;14.90;11.20;;;5.70;73.50;;;;;;5031904;28;20190;-76
2022/03/07 07:31:53;;;;;;;13.53;10.70;;;5.20;71.80;;;;;;5032698;28;20397;-69
2022/03/07 07:34:20;;;;;;;10.95;9.85;;;5.60;72.30;;;;;;5032104;28;20921;-68
2022/03/07 07:36:46;;;;;;;11.05;9.05;;;5.40;71.40;;;;;;5031274;28;20865;-68
2022/03/07 07:39:12;;;;;;;9.70;8.80;;;5.70;71.60;;;;;;5032015;28;20716;-68
2022/03/07 07:41:38;;;;;;;10.27;9.17;;;5.80;72.00;;;;;;5025055;28;20183;-68
2022/03/07 07:44:04;;;;;;;10.70;9.30;;;5.80;71.10;;;;;;5028869;28;20182;-68
2022/03/07 07:46:29;;;;;;;10.07;9.00;;;5.90;72.10;;;;;;5013566;28;20440;-68
2022/03/07 07:48:55;;;;;;;9.97;9.07;;;5.90;73.20;;;;;;5031449;28;20439;-68
2022/03/07 07:51:21;;;;;;;9.50;8.60;;;6.10;70.90;;;;;;5031077;28;20171;-67
2022/03/07 07:53:47;;;;;;;8.18;7.47;;;6.00;71.20;;;;;;5020699;28;20397;-68
2022/03/07 07:56:13;;;;;;;8.30;7.63;;;5.90;69.20;;;;;;5016229;28;20253;-68
2022/03/07 07:58:39;;;;;;;8.03;7.37;;;5.70;68.10;;;;;;5020466;28;20910;-68
2022/03/07 08:01:04;;;;;;;7.63;6.57;;;5.50;66.80;;;;;;5007732;28;20449;-68
2022/03/07 08:03:30;;;;;;;7.27;6.53;;;5.70;67.00;;;;;;5025126;28;20404;-69
2022/03/07 08:05:57;;;;;;;8.23;7.53;;;5.70;67.50;;;;;;5021926;28;20190;-69
2022/03/07 08:08:22;;;;;;;8.50;7.70;;;5.70;70.90;;;;;;5021232;28;20184;-68
2022/03/07 08:10:48;;;;;;;10.27;6.73;;;5.80;72.10;;;;;;5020191;28;20689;-68
2022/03/07 08:13:14;;;;;;;8.43;7.70;;;6.00;72.10;;;;;;5031819;28;20178;-68
2022/03/07 08:15:40;;;;;;;8.63;7.70;;;6.00;69.70;;;;;;5016518;28;20397;-68
2022/03/07 08:18:07;;;;;;;7.90;7.20;;;5.80;73.80;;;;;;5023630;28;20443;-68
2022/03/07 08:20:34;;;;;;;7.85;7.05;;;6.10;72.00;;;;;;5030648;28;20182;-68
2022/03/07 08:22:59;;;;;;;7.68;6.82;;;6.20;69.90;;;;;;4979378;28;20176;-68
2022/03/07 08:25:25;;;;;;;6.73;6.23;;;6.20;72.30;;;;;;5024280;28;20205;-68
2022/03/07 08:27:52;;;;;;;7.57;6.83;;;6.30;71.40;;;;;;5020770;28;20174;-67
2022/03/07 08:30:23;;;;;;;7.00;6.40;;;6.40;71.40;;;;;;5022994;28;20412;-68
2022/03/07 08:32:50;;;;;;;7.00;6.40;;;6.40;66.40;;;;;;5012651;28;20389;-67
2022/03/07 08:35:17;;;;;;;7.00;6.30;;;6.50;66.70;;;;;;5016340;28;20479;-68
2022/03/07 08:37:45;;;;;;;6.47;5.87;;;6.40;68.60;;;;;;5020935;28;20473;-68
2022/03/07 08:40:14;;;;;;;8.20;7.50;;;6.40;67.90;;;;;;5034728;28;20435;-68
2022/03/07 08:42:40;;;;;;;6.60;6.00;;;6.50;66.90;;;;;;5010330;28;20932;-68
2022/03/07 08:45:07;;;;;;;7.50;6.90;;;6.60;68.30;;;;;;5024917;28;20428;-68
2022/03/07 08:47:34;;;;;;;6.57;5.97;;;6.50;67.20;;;;;;5015151;28;20423;-69
2022/03/07 08:50:00;;;;;;;6.10;5.70;;;5.80;64.60;;;;;;5029338;28;21027;-68
2022/03/07 08:52:26;;;;;;;6.40;5.80;;;6.20;66.60;;;;;;5017379;28;20212;-69
2022/03/07 08:54:52;;;;;;;7.97;5.47;;;6.30;69.00;;;;;;5029261;28;20430;-68
2022/03/07 08:57:17;;;;;;;6.40;5.90;;;5.90;64.40;;;;;;5026492;28;20235;-67
2022/03/07 08:59:43;;;;;;;5.90;5.40;;;6.00;64.90;;;;;;5024765;28;20319;-68
2022/03/07 09:02:09;;;;;;;5.63;5.22;;;5.80;65.00;;;;;;5024947;28;20187;-68
2022/03/07 09:04:37;;;;;;;5.50;5.10;;;6.40;72.60;;;;;;5021906;28;20628;-68
2022/03/07 09:07:03;;;;;;;6.07;5.57;;;6.20;65.20;;;;;;5015408;28;20733;-69
2022/03/07 09:09:29;;;;;;;5.63;5.10;;;6.00;64.70;;;;;;4999684;28;20191;-76
2022/03/07 09:11:55;;;;;;;6.00;5.50;;;6.20;63.30;;;;;;4999780;28;20450;-68
2022/03/07 09:14:21;;;;;;;5.70;5.30;;;6.20;63.00;;;;;;5018833;28;20455;-68
2022/03/07 09:16:47;;;;;;;6.33;5.73;;;6.30;62.40;;;;;;5017454;28;20167;-68
2022/03/07 09:19:13;;;;;;;5.63;5.23;;;5.80;62.90;;;;;;5016867;28;20223;-69
2022/03/07 09:21:38;;;;;;;6.30;5.70;;;5.80;62.60;;;;;;5015635;28;20441;-68
2022/03/07 09:24:05;;;;;;;5.87;5.47;;;6.00;64.70;;;;;;5034795;28;20218;-68
2022/03/07 09:26:31;;;;;;;5.83;5.33;;;6.20;66.60;;;;;;5016785;28;20274;-76
2022/03/07 09:28:57;;;;;;;5.77;5.23;;;6.50;72.90;;;;;;5034498;28;20502;-68
2022/03/07 09:31:23;;;;;;;5.97;5.47;;;6.70;68.20;;;;;;5028553;28;20777;-68
2022/03/07 09:33:49;;;;;;;5.80;5.30;;;7.10;68.90;;;;;;5018384;28;20473;-68
2022/03/07 09:36:15;;;;;;;5.73;5.23;;;7.50;68.60;;;;;;5014488;28;20189;-68
2022/03/07 09:38:40;;;;;;;5.43;4.87;;;7.70;64.10;;;;;;5013883;28;20454;-68
2022/03/07 09:41:06;;;;;;;6.10;5.60;;;7.90;62.70;;;;;;4997255;28;20249;-68
2022/03/07 09:43:32;;;;;;;4.93;4.53;;;8.20;66.50;;;;;;5018463;28;20622;-74
2022/03/07 09:45:58;;;;;;;6.90;5.27;;;8.50;63.10;;;;;;5016190;28;20459;-68
2022/03/07 09:48:25;;;;;;;5.63;5.20;;;8.70;61.20;;;;;;5033457;28;20182;-68
2022/03/07 09:50:52;;;;;;;6.57;5.83;;;9.00;59.90;;;;;;5032822;28;20460;-68
2022/03/07 09:53:19;;;;;;;6.70;6.10;;;8.70;57.10;;;;;;5016400;28;20439;-68
2022/03/07 09:55:45;;;;;;;5.70;5.30;;;8.90;59.10;;;;;;5033392;28;20417;-68
2022/03/07 09:58:12;;;;;;;5.77;5.30;;;9.20;59.20;;;;;;5020312;28;20504;-68
2022/03/07 10:00:42;;;;;;;5.50;5.10;;;9.70;59.70;;;;;;4995973;28;20493;-69
2022/03/07 10:03:13;;;;;;;5.20;4.90;;;9.80;57.40;;;;;;5012335;28;20825;-68
2022/03/07 10:05:45;;;;;;;5.53;5.13;;;10.00;57.40;;;;;;5015719;28;20429;-68
2022/03/07 10:08:22;;;;;;;7.23;5.50;;;10.30;54.60;;;;;;4997273;28;20418;-68
2022/03/07 10:10:50;;;;;;;5.30;4.90;;;10.60;56.10;;;;;;5013253;28;20421;-68
2022/03/07 10:13:16;;;;;;;5.87;5.33;;;10.90;54.30;;;;;;5014117;28;20429;-68
2022/03/07 10:15:42;;;;;;;5.63;5.23;;;10.80;52.90;;;;;;5023366;28;20421;-68
2022/03/07 10:18:18;;;;;;;5.73;5.13;;;10.90;53.30;;;;;;5014526;28;20823;-68
2022/03/07 10:20:52;;;;;;;5.97;5.57;;;11.00;52.60;;;;;;5012923;28;21096;-68
2022/03/07 10:23:18;;;;;;;6.00;5.60;;;11.20;52.20;;;;;;5013960;28;20453;-68
2022/03/07 10:25:45;;;;;;;5.90;5.57;;;11.20;53.50;;;;;;5014214;28;20768;-68
2022/03/07 10:28:11;;;;;;;6.63;4.90;;;11.20;51.10;;;;;;5030815;28;20432;-68
2022/03/07 10:30:38;;;;;;;6.00;5.50;;;11.40;50.80;;;;;;5013893;28;20438;-75
2022/03/07 10:33:07;;;;;;;5.60;5.20;;;11.40;51.40;;;;;;5023875;28;20429;-68
2022/03/07 10:35:41;;;;;;;5.30;4.87;;;11.60;51.20;;;;;;5028753;28;20425;-68
2022/03/07 10:38:10;;;;;;;5.30;4.90;;;11.90;51.50;;;;;;5013464;28;20448;-67
2022/03/07 10:40:39;;;;;;;6.07;5.63;;;12.10;51.00;;;;;;5013618;28;20573;-75
2022/03/07 10:43:06;;;;;;;5.43;5.10;;;12.20;50.10;;;;;;5013490;28;20434;-67
2022/03/07 10:45:47;;;;;;;5.43;5.13;;;12.50;50.70;;;;;;5013551;28;20438;-68
2022/03/07 10:48:14;;;;;;;5.77;5.37;;;12.60;50.00;;;;;;5013585;28;20493;-68
2022/03/07 10:50:47;;;;;;;5.70;5.30;;;12.70;49.50;;;;;;5027916;28;20459;-69
2022/03/07 10:53:12;;;;;;;5.13;4.80;;;12.70;48.60;;;;;;5033025;28;20434;-68
2022/03/07 10:55:38;;;;;;;5.13;4.83;;;12.80;49.60;;;;;;5032923;28;20416;-74
2022/03/07 10:58:12;;;;;;;6.17;5.67;;;12.90;49.20;;;;;;5032929;28;20197;-68
2022/03/07 11:00:48;;;;;;;5.90;5.40;;;13.20;49.40;;;;;;5014265;28;20243;-75
2022/03/07 11:03:22;;;;;;;6.57;5.97;;;13.40;49.30;;;;;;5026564;28;20428;-67
2022/03/07 11:05:48;;;;;;;6.47;5.97;;;13.70;48.20;;;;;;5006280;28;20444;-68
2022/03/07 11:08:16;;;;;;;5.97;5.57;;;13.60;48.30;;;;;;5015612;28;20448;-69
2022/03/07 11:10:47;;;;;;;5.53;4.90;;;13.80;48.00;;;;;;5020143;28;20432;-70
2022/03/07 11:13:17;;;;;;;5.90;5.40;;;13.80;47.40;;;;;;5022459;28;20401;-68
2022/03/07 11:15:44;;;;;;;6.73;6.20;;;14.00;47.40;;;;;;5021367;28;20480;-68
2022/03/07 11:18:11;;;;;;;6.53;6.00;;;13.90;47.60;;;;;;5003407;28;20449;-68
2022/03/07 11:20:43;;;;;;;5.83;5.40;;;14.00;46.80;;;;;;5021850;28;20920;-75
2022/03/07 11:23:12;;;;;;;6.07;5.67;;;14.10;48.60;;;;;;5036310;28;20410;-68
2022/03/07 11:25:39;;;;;;;6.23;5.83;;;14.10;48.20;;;;;;5016840;28;20487;-75
2022/03/07 11:28:06;;;;;;;6.10;5.50;;;14.20;47.60;;;;;;5023085;28;20430;-69
2022/03/07 11:30:39;;;;;;;5.47;5.07;;;14.20;46.50;;;;;;5029839;28;20448;-67
2022/03/07 11:33:14;;;;;;;5.83;5.43;;;14.20;46.50;;;;;;5012156;28;20468;-67
2022/03/07 11:35:51;;;;;;;6.10;5.60;;;14.40;46.80;;;;;;5025729;28;20412;-74
2022/03/07 11:38:22;;;;;;;7.47;6.87;;;14.40;47.10;;;;;;5016221;28;20452;-67
2022/03/07 11:41:00;;;;;;;5.70;5.20;;;14.50;47.00;;;;;;5011262;28;20425;-70
2022/03/07 11:43:29;;;;;;;5.67;5.27;;;14.60;45.30;;;;;;5013078;28;20429;-67
2022/03/07 11:45:56;;;;;;;5.10;4.70;;;14.50;46.30;;;;;;5014340;28;20459;-67
2022/03/07 11:48:23;;;;;;;5.57;5.10;;;14.50;47.90;;;;;;4961434;28;20424;-69
2022/03/07 11:50:49;;;;;;;5.83;5.43;;;14.70;46.40;;;;;;5018627;28;20515;-72
2022/03/07 11:53:15;;;;;;;5.60;5.20;;;14.70;46.90;;;;;;5023722;28;20426;-68
2022/03/07 11:55:46;;;;;;;5.70;5.30;;;14.70;45.90;;;;;;5012527;28;20448;-76
2022/03/07 11:58:12;;;;;;;6.00;5.00;;;14.80;47.60;;;;;;5028674;28;20457;-68
2022/03/07 12:00:38;;;;;;;6.23;5.20;;;14.70;46.80;;;;;;5025076;28;20938;-75
2022/03/07 12:03:23;;;;;;;5.70;5.20;;;14.60;45.10;;;;;;5017232;28;20418;-68
2022/03/07 12:06:01;;;;;;;6.10;5.60;;;14.90;46.70;;;;;;5030344;28;20414;-68
2022/03/07 12:08:27;;;;;;;5.40;5.10;;;15.40;46.50;;;;;;4998516;28;20415;-68
2022/03/07 12:10:59;;;;;;;5.97;5.57;;;15.60;44.90;;;;;;5010598;28;20827;-69
2022/03/07 12:13:26;;;;;;;6.53;6.03;;;15.70;44.00;;;;;;5003390;28;20267;-68
2022/03/07 12:15:55;;;;;;;6.00;5.57;;;15.20;45.20;;;;;;5028582;28;20455;-68
2022/03/07 12:18:22;;;;;;;6.30;5.80;;;15.10;45.00;;;;;;5034427;28;20512;-68
2022/03/07 12:20:55;;;;;;;6.27;5.90;;;15.10;45.00;;;;;;5025566;28;20482;-68
2022/03/07 12:23:23;;;;;;;5.43;5.00;;;15.10;46.00;;;;;;5015637;28;20514;-68
2022/03/07 12:26:02;;;;;;;6.50;6.10;;;14.80;46.60;;;;;;5022009;28;20421;-68
2022/03/07 12:28:34;;;;;;;5.73;5.30;;;14.30;47.70;;;;;;5023214;28;20434;-68
2022/03/07 12:31:02;;;;;;;5.47;5.07;;;14.00;47.00;;;;;;5022409;28;20421;-68
2022/03/07 12:33:28;;;;;;;5.30;5.00;;;14.10;46.80;;;;;;5034829;28;20412;-68
2022/03/07 12:36:04;;;;;;;5.13;4.80;;;14.20;46.50;;;;;;5023058;28;22496;-68
2022/03/07 12:38:31;;;;;;;6.37;5.87;;;14.30;46.80;;;;;;5023511;28;20540;-69
2022/03/07 12:41:00;;;;;;;6.40;5.90;;;14.10;46.00;;;;;;5033936;28;20417;-70
2022/03/07 12:43:27;;;;;;;6.40;6.00;;;13.90;46.70;;;;;;5017023;28;21103;-69